createdAt,value
2018-12-15T00:02:21.735Z,102143.42
2018-12-15T00:04:52.394Z,102137.45
2018-12-15T00:07:23.038Z,102143.91
2018-12-15T00:09:51.774Z,102143.31
2018-12-15T00:12:20.430Z,102143.58
2018-12-15T00:14:49.158Z,102143.64
2018-12-15T00:17:17.934Z,102140.47
2018-12-15T00:19:46.657Z,102141.94
2018-12-15T00:22:15.317Z,102145.78
2018-12-15T00:24:44.038Z,102142.50
2018-12-15T00:27:12.774Z,102147.55
2018-12-15T00:29:41.666Z,102142.31
2018-12-15T00:32:10.386Z,102144.75
2018-12-15T00:34:39.119Z,102145.39
2018-12-15T00:37:07.850Z,102141.22
2018-12-15T00:39:36.500Z,102151.25
2018-12-15T00:42:05.234Z,102151.83
2018-12-15T00:44:33.946Z,102160.98
2018-12-15T00:47:02.722Z,102158.08
2018-12-15T00:49:31.378Z,102153.73
2018-12-15T00:52:00.142Z,102150.18
2018-12-15T00:54:28.863Z,102152.09
2018-12-15T00:56:57.527Z,102155.23
2018-12-15T00:59:26.192Z,102142.64
2018-12-15T01:01:54.904Z,102149.56
2018-12-15T01:04:23.614Z,102155.44
2018-12-15T01:06:52.366Z,102154.78
2018-12-15T01:09:21.102Z,102155.72
2018-12-15T01:11:49.832Z,102162.45
2018-12-15T01:14:18.487Z,102167.88
2018-12-15T01:16:47.183Z,102170.95
2018-12-15T01:19:15.894Z,102167.64
2018-12-15T01:21:44.570Z,102170.02
2018-12-15T01:24:13.289Z,102176.37
2018-12-15T01:26:42.030Z,102171.05
2018-12-15T01:29:11.783Z,102180.30
2018-12-15T01:31:40.498Z,102178.56
2018-12-15T01:34:09.226Z,102182.34
2018-12-15T01:36:37.888Z,102182.67
2018-12-15T01:39:08.354Z,102181.98
2018-12-15T01:41:37.173Z,102187.78
2018-12-15T01:44:05.884Z,102187.77
2018-12-15T01:46:34.583Z,102188.99
2018-12-15T01:49:03.335Z,102190.39
2018-12-15T01:51:32.106Z,102191.94
2018-12-15T01:54:00.806Z,102194.59
2018-12-15T01:56:29.464Z,102197.70
2018-12-15T01:58:58.166Z,102193.58
2018-12-15T02:01:26.881Z,102196.01
2018-12-15T02:03:55.573Z,102201.08
2018-12-15T02:06:24.291Z,102203.91
2018-12-15T02:08:53.043Z,102202.84
2018-12-15T02:11:23.697Z,102202.53
2018-12-15T02:13:53.515Z,102203.37
2018-12-15T02:16:22.226Z,102212.50
2018-12-15T02:18:50.943Z,102207.05
2018-12-15T02:21:19.639Z,102202.48
2018-12-15T02:23:48.335Z,102207.81
2018-12-15T02:26:17.042Z,102205.30
2018-12-15T02:28:45.759Z,102206.91
2018-12-15T02:31:14.450Z,102203.16
2018-12-15T02:33:44.171Z,102194.50
2018-12-15T02:36:12.875Z,102196.59
2018-12-15T02:38:41.573Z,102194.66
2018-12-15T02:41:10.296Z,102188.84
2018-12-15T02:43:39.022Z,102191.92
2018-12-15T02:46:07.756Z,102193.30
2018-12-15T02:48:36.478Z,102196.21
2018-12-15T02:51:05.194Z,102189.96
2018-12-15T02:53:33.923Z,102188.45
2018-12-15T02:56:02.590Z,102188.91
2018-12-15T02:58:31.304Z,102184.30
2018-12-15T03:01:00.011Z,102192.36
2018-12-15T03:03:28.742Z,102191.55
2018-12-15T03:05:57.450Z,102186.05
2018-12-15T03:08:26.174Z,102187.14
2018-12-15T03:10:54.827Z,102183.03
2018-12-15T03:13:23.538Z,102187.58
2018-12-15T03:15:52.260Z,102192.91
2018-12-15T03:18:21.066Z,102182.37
2018-12-15T03:21:01.198Z,102186.22
2018-12-15T03:23:29.859Z,102178.51
2018-12-15T03:25:58.834Z,102188.80
2018-12-15T03:28:27.508Z,102183.47
2018-12-15T03:30:56.226Z,102188.89
2018-12-15T03:33:25.008Z,102187.03
2018-12-15T03:35:53.734Z,102191.47
2018-12-15T03:38:22.450Z,102193.68
2018-12-15T03:40:51.166Z,102196.26
2018-12-15T03:43:19.916Z,102190.89
2018-12-15T03:45:48.612Z,102198.61
2018-12-15T03:48:17.311Z,102198.61
2018-12-15T03:50:46.019Z,102196.47
2018-12-15T03:53:14.745Z,102197.09
2018-12-15T03:55:43.444Z,102200.44
2018-12-15T03:58:12.213Z,102203.02
2018-12-15T04:00:40.925Z,102211.17
2018-12-15T04:03:09.587Z,102211.02
2018-12-15T04:05:38.302Z,102207.71
2018-12-15T04:08:06.989Z,102201.75
2018-12-15T04:10:35.997Z,102208.45
2018-12-15T04:13:04.800Z,102204.37
2018-12-15T04:15:33.559Z,102212.71
2018-12-15T04:18:03.858Z,102195.72
2018-12-15T04:20:32.809Z,102202.67
2018-12-15T04:23:01.547Z,102200.58
2018-12-15T04:25:30.326Z,102197.53
2018-12-15T04:27:59.031Z,102196.20
2018-12-15T04:30:27.879Z,102200.36
2018-12-15T04:32:56.558Z,102198.33
2018-12-15T04:35:25.386Z,102203.95
2018-12-15T04:37:54.111Z,102200.36
2018-12-15T04:40:23.271Z,102202.06
2018-12-15T04:42:51.990Z,102201.56
2018-12-15T04:45:20.807Z,102203.63
2018-12-15T04:47:49.647Z,102202.56
2018-12-15T04:50:18.347Z,102205.59
2018-12-15T04:52:47.043Z,102214.23
2018-12-15T04:55:15.741Z,102204.19
2018-12-15T04:57:44.517Z,102201.81
2018-12-15T05:00:13.279Z,102202.44
2018-12-15T05:02:44.058Z,102200.08
2018-12-15T05:05:12.786Z,102198.50
2018-12-15T05:07:41.479Z,102196.26
2018-12-15T05:10:11.271Z,102192.84
2018-12-15T05:12:39.960Z,102195.10
2018-12-15T05:15:08.752Z,102194.42
2018-12-15T05:17:37.460Z,102195.05
2018-12-15T05:20:07.429Z,102197.31
2018-12-15T05:22:36.306Z,102043.09
2018-12-15T05:25:06.115Z,102193.08
2018-12-15T05:27:34.843Z,102186.58
2018-12-15T05:30:03.734Z,102189.66
2018-12-15T05:32:32.465Z,102190.75
2018-12-15T05:35:01.255Z,102191.13
2018-12-15T05:37:30.099Z,102188.75
2018-12-15T05:39:58.823Z,102194.49
2018-12-15T05:42:27.571Z,102195.96
2018-12-15T05:44:56.335Z,102194.34
2018-12-15T05:47:25.083Z,102196.69
2018-12-15T05:49:53.762Z,102186.98
2018-12-15T05:52:22.458Z,102192.97
2018-12-15T05:54:51.155Z,102191.98
2018-12-15T05:57:19.914Z,102194.00
2018-12-15T05:59:48.618Z,102194.94
2018-12-15T06:02:18.119Z,102192.63
2018-12-15T06:04:46.866Z,102188.80
2018-12-15T06:07:15.586Z,102186.42
2018-12-15T06:09:44.327Z,102188.01
2018-12-15T06:12:13.091Z,102190.05
2018-12-15T06:14:41.844Z,102189.00
2018-12-15T06:17:10.675Z,102181.25
2018-12-15T06:19:39.500Z,102185.77
2018-12-15T06:22:08.263Z,102192.16
2018-12-15T06:24:37.397Z,102195.14
2018-12-15T06:27:06.119Z,102188.90
2018-12-15T06:29:34.867Z,102189.96
2018-12-15T06:32:03.699Z,102193.19
2018-12-15T06:34:32.463Z,102193.88
2018-12-15T06:37:01.166Z,102188.70
2018-12-15T06:39:29.991Z,102190.34
2018-12-15T06:41:58.756Z,102189.14
2018-12-15T06:44:27.591Z,102183.53
2018-12-15T06:46:56.287Z,102181.91
2018-12-15T06:49:25.893Z,102185.31
2018-12-15T06:51:54.591Z,102189.05
2018-12-15T06:54:23.297Z,102188.34
2018-12-15T06:56:51.990Z,102186.37
2018-12-15T06:59:20.746Z,102189.84
2018-12-15T07:01:49.523Z,102194.59
2018-12-15T07:04:18.279Z,102190.80
2018-12-15T07:06:47.039Z,102196.80
2018-12-15T07:09:15.782Z,102199.44
2018-12-15T07:11:44.526Z,102198.17
2018-12-15T07:14:13.264Z,102198.49
2018-12-15T07:16:41.991Z,102204.89
2018-12-15T07:19:10.794Z,102199.69
2018-12-15T07:21:39.531Z,102201.83
2018-12-15T07:24:08.790Z,102199.95
2018-12-15T07:26:37.596Z,102197.49
2018-12-15T07:29:06.423Z,102202.84
2018-12-15T07:31:35.206Z,102200.31
2018-12-15T07:34:03.973Z,102198.81
2018-12-15T07:36:32.831Z,102204.61
2018-12-15T07:39:01.563Z,102207.39
2018-12-15T07:41:31.274Z,102210.53
2018-12-15T07:44:00.007Z,102200.41
2018-12-15T07:46:28.678Z,102204.10
2018-12-15T07:48:57.385Z,102202.42
2018-12-15T07:51:26.119Z,102196.55
2018-12-15T07:53:54.892Z,102200.25
2018-12-15T07:56:26.797Z,102199.64
2018-12-15T07:58:56.074Z,102200.52
2018-12-15T08:01:24.778Z,102200.27
2018-12-15T08:03:53.559Z,102200.01
2018-12-15T08:06:22.283Z,102200.82
2018-12-15T08:08:51.020Z,102196.91
2018-12-15T08:11:25.200Z,102198.25
2018-12-15T08:13:58.112Z,102199.80
2018-12-15T08:16:26.907Z,102201.09
2018-12-15T08:18:58.194Z,102197.99
2018-12-15T08:21:26.954Z,102209.99
2018-12-15T08:23:55.622Z,102205.31
2018-12-15T08:26:25.451Z,102205.38
2018-12-15T08:28:54.184Z,102199.37
2018-12-15T08:31:22.910Z,102204.73
2018-12-15T08:33:51.690Z,102203.59
2018-12-15T08:36:20.354Z,102206.77
2018-12-15T08:38:49.087Z,102206.20
2018-12-15T08:41:17.972Z,102209.86
2018-12-15T08:43:47.529Z,102205.36
2018-12-15T08:46:17.578Z,102210.61
2018-12-15T08:48:46.302Z,102212.94
2018-12-15T08:51:15.254Z,102216.34
2018-12-15T08:53:44.042Z,102214.65
2018-12-15T08:56:12.770Z,102215.86
2018-12-15T08:58:41.550Z,102217.88
2018-12-15T09:01:10.299Z,102212.44
2018-12-15T09:03:39.019Z,102210.63
2018-12-15T09:06:07.767Z,102217.58
2018-12-15T09:08:36.460Z,102209.86
2018-12-15T09:11:05.193Z,102213.34
2018-12-15T09:13:33.946Z,102218.25
2018-12-15T09:16:02.675Z,102219.52
2018-12-15T09:18:31.717Z,102215.67
2018-12-15T09:21:00.434Z,102211.77
2018-12-15T09:23:29.131Z,102215.09
2018-12-15T09:25:57.878Z,102211.95
2018-12-15T09:28:27.242Z,102213.81
2018-12-15T09:30:56.032Z,102217.78
2018-12-15T09:33:24.730Z,102216.84
2018-12-15T09:35:53.471Z,102221.32
2018-12-15T09:38:22.231Z,102207.18
2018-12-15T09:40:50.972Z,102218.98
2018-12-15T09:43:19.758Z,102209.65
2018-12-15T09:45:48.415Z,102207.07
2018-12-15T09:48:17.146Z,102211.36
2018-12-15T09:50:46.455Z,102208.91
2018-12-15T09:53:15.235Z,102203.39
2018-12-15T09:55:43.998Z,102208.00
2018-12-15T09:58:12.655Z,102207.05
2018-12-15T10:00:41.359Z,102203.22
2018-12-15T10:03:10.094Z,102193.63
2018-12-15T10:05:38.814Z,102198.61
2018-12-15T10:08:07.487Z,102199.17
2018-12-15T10:10:36.211Z,102198.63
2018-12-15T10:13:04.969Z,102197.67
2018-12-15T10:15:33.700Z,102196.80
2018-12-15T10:18:02.488Z,102198.67
2018-12-15T10:20:31.244Z,102196.98
2018-12-15T10:22:59.945Z,102193.45
2018-12-15T10:25:28.646Z,102191.62
2018-12-15T10:27:57.389Z,102189.55
2018-12-15T10:30:31.582Z,102185.81
2018-12-15T10:33:00.314Z,102178.54
2018-12-15T10:35:29.062Z,102181.83
2018-12-15T10:37:58.027Z,102169.03
2018-12-15T10:40:26.806Z,102172.87
2018-12-15T10:42:55.490Z,102170.34
2018-12-15T10:45:24.245Z,102171.58
2018-12-15T10:47:52.971Z,102164.27
2018-12-15T10:50:21.656Z,102160.87
2018-12-15T10:52:50.315Z,102166.94
2018-12-15T10:55:19.034Z,102159.25
2018-12-15T10:57:47.915Z,102159.98
2018-12-15T11:00:23.029Z,102153.98
2018-12-15T11:02:51.758Z,102160.54
2018-12-15T11:05:20.511Z,102157.27
2018-12-15T11:07:49.306Z,102150.70
2018-12-15T11:10:18.206Z,102139.70
2018-12-15T11:12:46.891Z,102130.88
2018-12-15T11:15:15.626Z,102133.78
2018-12-15T11:17:44.364Z,102135.78
2018-12-15T11:20:13.166Z,102135.75
2018-12-15T11:22:41.962Z,102137.81
2018-12-15T11:25:10.723Z,102124.34
2018-12-15T11:27:39.445Z,102126.64
2018-12-15T11:30:08.198Z,102118.02
2018-12-15T11:32:37.091Z,102122.63
2018-12-15T11:35:06.114Z,102118.26
2018-12-15T11:37:34.954Z,102116.58
2018-12-15T11:40:03.831Z,102120.98
2018-12-15T11:42:32.558Z,102118.64
2018-12-15T11:45:01.267Z,102118.45
2018-12-15T11:47:30.010Z,102113.45
2018-12-15T11:49:58.747Z,102109.56
2018-12-15T11:52:27.494Z,102108.30
2018-12-15T11:54:56.202Z,102106.66
2018-12-15T11:57:25.026Z,102101.39
2018-12-15T11:59:53.791Z,102101.18
2018-12-15T12:02:22.526Z,102095.41
2018-12-15T12:04:51.279Z,102102.80
2018-12-15T12:07:20.072Z,102089.78
2018-12-15T12:09:48.799Z,102088.81
2018-12-15T12:12:17.515Z,102087.10
2018-12-15T12:14:46.238Z,102083.54
2018-12-15T12:17:14.951Z,102076.65
2018-12-15T12:19:50.028Z,102078.86
2018-12-15T12:22:14.403Z,102067.39
2018-12-15T12:24:43.111Z,102067.13
2018-12-15T12:27:13.809Z,102064.13
2018-12-15T12:29:43.577Z,102063.45
2018-12-15T12:32:12.383Z,102059.92
2018-12-15T12:34:41.074Z,102058.58
2018-12-15T12:37:09.886Z,102062.52
2018-12-15T12:39:38.628Z,102060.84
2018-12-15T12:42:07.346Z,102055.26
2018-12-15T12:44:36.738Z,102053.11
2018-12-15T12:47:05.546Z,102053.50
2018-12-15T12:49:34.318Z,102052.62
2018-12-15T12:52:03.094Z,102046.27
2018-12-15T12:54:31.850Z,102045.19
2018-12-15T12:57:00.570Z,102041.70
2018-12-15T12:59:31.323Z,102035.35
2018-12-15T13:02:00.086Z,102036.28
2018-12-15T13:04:28.742Z,102036.35
2018-12-15T13:06:57.462Z,102038.69
2018-12-15T13:09:26.196Z,102031.11
2018-12-15T13:11:54.931Z,102036.16
2018-12-15T13:14:23.714Z,102032.22
2018-12-15T13:16:52.502Z,102024.53
2018-12-15T13:19:21.203Z,102030.94
2018-12-15T13:21:50.792Z,102030.49
2018-12-15T13:24:19.522Z,102031.98
2018-12-15T13:26:48.246Z,102036.13
2018-12-15T13:29:16.956Z,102035.09
2018-12-15T13:31:45.658Z,102029.88
2018-12-15T13:34:14.410Z,102030.91
2018-12-15T13:36:43.135Z,102028.08
2018-12-15T13:39:11.946Z,102026.89
2018-12-15T13:41:40.687Z,102022.91
2018-12-15T13:44:10.046Z,102021.16
2018-12-15T13:46:38.770Z,102017.13
2018-12-15T13:49:07.500Z,102021.34
2018-12-15T13:51:36.214Z,102014.00
2018-12-15T13:54:04.931Z,101946.02
2018-12-15T13:56:33.659Z,102013.28
2018-12-15T13:59:02.390Z,102011.28
2018-12-15T14:01:31.162Z,102008.38
2018-12-15T14:03:59.882Z,102001.99
2018-12-15T14:06:29.426Z,102002.48
2018-12-15T14:08:58.154Z,102000.67
2018-12-15T14:11:26.907Z,101992.11
2018-12-15T14:13:55.652Z,101987.78
2018-12-15T14:16:24.365Z,101985.91
2018-12-15T14:18:53.102Z,101985.53
2018-12-15T14:21:21.810Z,101982.78
2018-12-15T14:23:50.527Z,101986.70
2018-12-15T14:26:19.266Z,101985.56
2018-12-15T14:28:49.006Z,101988.20
2018-12-15T14:31:17.721Z,101985.53
2018-12-15T14:33:46.411Z,101990.55
2018-12-15T14:36:15.154Z,101991.23
2018-12-15T14:38:43.905Z,101995.13
2018-12-15T14:41:12.652Z,101989.21
2018-12-15T14:43:41.416Z,101988.79
2018-12-15T14:46:10.142Z,101982.28
2018-12-15T14:48:38.839Z,101976.67
2018-12-15T14:51:08.510Z,101974.88
2018-12-15T14:53:37.255Z,101978.03
2018-12-15T14:56:05.990Z,101977.80
2018-12-15T14:58:34.743Z,101976.67
2018-12-15T15:01:04.526Z,101974.22
2018-12-15T15:03:33.219Z,101971.23
2018-12-15T15:06:01.871Z,101970.44
2018-12-15T15:08:30.691Z,101968.34
2018-12-15T15:10:59.596Z,101965.27
2018-12-15T15:13:34.328Z,101964.81
2018-12-15T15:15:59.091Z,101957.38
2018-12-15T15:18:27.805Z,101952.16
2018-12-15T15:20:56.642Z,101950.98
2018-12-15T15:23:25.311Z,101948.58
2018-12-15T15:25:54.051Z,101940.08
2018-12-15T15:28:22.797Z,101934.27
2018-12-15T15:30:51.539Z,101933.75
2018-12-15T15:33:20.200Z,101934.25
2018-12-15T15:35:48.930Z,101923.03
2018-12-15T15:38:17.657Z,101933.17
2018-12-15T15:40:46.387Z,101914.60
2018-12-15T15:43:15.070Z,101915.37
2018-12-15T15:45:43.793Z,101915.45
2018-12-15T15:48:12.482Z,101906.84
2018-12-15T15:50:41.235Z,101895.30
2018-12-15T15:53:10.059Z,101896.94
2018-12-15T15:55:38.796Z,101787.86
2018-12-15T15:58:07.541Z,101884.47
2018-12-15T16:00:36.267Z,101888.06
2018-12-15T16:03:05.042Z,101887.91
2018-12-15T16:05:33.771Z,101877.51
2018-12-15T16:08:02.424Z,101877.95
2018-12-15T16:10:31.155Z,101869.92
2018-12-15T16:12:59.883Z,101869.23
2018-12-15T16:15:28.619Z,101859.19
2018-12-15T16:17:57.442Z,101858.13
2018-12-15T16:20:26.117Z,101861.02
2018-12-15T16:22:54.843Z,101853.80
2018-12-15T16:25:23.590Z,101858.84
2018-12-15T16:27:52.302Z,101859.98
2018-12-15T16:30:21.087Z,101855.95
2018-12-15T16:32:49.819Z,101847.88
2018-12-15T16:35:19.800Z,101833.67
2018-12-15T16:37:48.732Z,101830.72
2018-12-15T16:40:17.474Z,101820.31
2018-12-15T16:42:46.214Z,101821.58
2018-12-15T16:45:15.011Z,101825.16
2018-12-15T16:47:43.763Z,101824.82
2018-12-15T16:50:13.773Z,101818.70
2018-12-15T16:52:42.787Z,101819.34
2018-12-15T16:55:11.491Z,101817.14
2018-12-15T16:57:41.262Z,101810.36
2018-12-15T17:00:12.815Z,101805.44
2018-12-15T17:02:41.513Z,101804.56
2018-12-15T17:05:10.222Z,101802.42
2018-12-15T17:07:38.962Z,101794.96
2018-12-15T17:10:08.549Z,101792.14
2018-12-15T17:12:37.282Z,101790.31
2018-12-15T17:15:07.746Z,101794.00
2018-12-15T17:17:37.538Z,101791.38
2018-12-15T17:20:07.667Z,101794.44
2018-12-15T17:22:37.403Z,101786.80
2018-12-15T17:25:07.086Z,101785.91
2018-12-15T17:27:35.822Z,101787.32
2018-12-15T17:30:06.350Z,101781.96
2018-12-15T17:32:36.194Z,101775.69
2018-12-15T17:35:05.562Z,101768.05
2018-12-15T17:37:35.384Z,101771.06
2018-12-15T17:40:06.687Z,101769.70
2018-12-15T17:42:35.463Z,101768.49
2018-12-15T17:45:04.351Z,101767.21
2018-12-15T17:47:33.098Z,101752.02
2018-12-15T17:50:01.794Z,101749.59
2018-12-15T17:52:30.514Z,101751.13
2018-12-15T17:54:59.246Z,101758.81
2018-12-15T17:57:27.979Z,101748.50
2018-12-15T17:59:56.738Z,101736.25
2018-12-15T18:02:26.119Z,101733.52
2018-12-15T18:04:54.847Z,101732.78
2018-12-15T18:07:23.582Z,101724.66
2018-12-15T18:09:52.334Z,101720.41
2018-12-15T18:12:21.078Z,101714.59
2018-12-15T18:14:49.840Z,101710.08
2018-12-15T18:17:18.543Z,101713.67
2018-12-15T18:19:47.223Z,101725.85
2018-12-15T18:22:15.955Z,101712.89
2018-12-15T18:24:45.407Z,101717.75
2018-12-15T18:27:14.090Z,101715.92
2018-12-15T18:29:42.787Z,101709.28
2018-12-15T18:32:11.602Z,101700.00
2018-12-15T18:34:40.341Z,101699.42
2018-12-15T18:37:09.089Z,101692.86
2018-12-15T18:39:37.819Z,101687.98
2018-12-15T18:42:10.827Z,101684.70
2018-12-15T18:44:37.235Z,101685.07
2018-12-15T18:47:05.934Z,101674.72
2018-12-15T18:49:34.679Z,101684.57
2018-12-15T18:52:03.467Z,101671.04
2018-12-15T18:54:32.286Z,101673.92
2018-12-15T18:57:01.091Z,101679.41
2018-12-15T18:59:31.141Z,101675.08
2018-12-15T19:01:59.895Z,101667.10
2018-12-15T19:04:28.683Z,101660.42
2018-12-15T19:06:57.351Z,101662.52
2018-12-15T19:09:26.115Z,101666.00
2018-12-15T19:11:55.927Z,101669.17
2018-12-15T19:14:24.647Z,101654.20
2018-12-15T19:16:53.419Z,101656.27
2018-12-15T19:19:22.162Z,101647.78
2018-12-15T19:21:50.843Z,101650.87
2018-12-15T19:24:19.607Z,101637.09
2018-12-15T19:26:48.326Z,101633.07
2018-12-15T19:29:17.131Z,101631.75
2018-12-15T19:31:45.883Z,101623.68
2018-12-15T19:34:17.687Z,101615.61
2018-12-15T19:36:45.918Z,101602.56
2018-12-15T19:39:14.714Z,101588.70
2018-12-15T19:41:43.456Z,101586.64
2018-12-15T19:44:12.206Z,101573.46
2018-12-15T19:46:40.934Z,101572.41
2018-12-15T19:49:09.671Z,101569.52
2018-12-15T19:51:38.394Z,101572.50
2018-12-15T19:54:07.139Z,101569.95
2018-12-15T19:56:36.874Z,101581.23
2018-12-15T19:59:05.586Z,101576.55
2018-12-15T20:01:34.311Z,101566.81
2018-12-15T20:04:03.055Z,101557.01
2018-12-15T20:06:32.547Z,101545.34
2018-12-15T20:09:01.226Z,101543.76
2018-12-15T20:11:29.994Z,101536.70
2018-12-15T20:13:58.646Z,101532.97
2018-12-15T20:16:27.439Z,101529.83
2018-12-15T20:18:56.154Z,101516.46
2018-12-15T20:21:24.882Z,101521.50
2018-12-15T20:23:53.735Z,101516.72
2018-12-15T20:26:22.487Z,101523.25
2018-12-15T20:28:51.186Z,101516.23
2018-12-15T20:31:19.912Z,101525.91
2018-12-15T20:33:48.586Z,101326.05
2018-12-15T20:36:17.342Z,101527.48
2018-12-15T20:38:46.054Z,101531.70
2018-12-15T20:41:14.755Z,101525.00
2018-12-15T20:43:43.514Z,101522.33
2018-12-15T20:46:12.259Z,101525.30
2018-12-15T20:48:40.995Z,101518.19
2018-12-15T20:51:09.719Z,101509.44
2018-12-15T20:53:38.472Z,101499.36
2018-12-15T20:56:07.208Z,101500.80
2018-12-15T20:58:35.969Z,101504.45
2018-12-15T21:01:04.806Z,101501.83
2018-12-15T21:03:33.535Z,101493.70
2018-12-15T21:06:02.300Z,101501.22
2018-12-15T21:08:31.039Z,101502.11
2018-12-15T21:10:59.822Z,101494.63
2018-12-15T21:13:28.528Z,101493.18
2018-12-15T21:15:58.413Z,101481.87
2018-12-15T21:18:27.205Z,101473.37
2018-12-15T21:20:55.931Z,101470.02
2018-12-15T21:23:24.707Z,101464.09
2018-12-15T21:25:53.442Z,101466.09
2018-12-15T21:28:22.162Z,101456.44
2018-12-15T21:30:50.834Z,101457.13
2018-12-15T21:33:19.590Z,101458.03
2018-12-15T21:35:48.322Z,101456.97
2018-12-15T21:38:17.066Z,101441.39
2018-12-15T21:40:45.845Z,101435.27
2018-12-15T21:43:14.578Z,101436.72
2018-12-15T21:45:43.320Z,101424.62
2018-12-15T21:48:12.112Z,101415.91
2018-12-15T21:50:40.899Z,101421.61
2018-12-15T21:53:09.556Z,101405.37
2018-12-15T21:55:38.307Z,101398.16
2018-12-15T21:58:07.058Z,101386.58
2018-12-15T22:00:35.766Z,101386.75
2018-12-15T22:03:04.582Z,101384.03
2018-12-15T22:05:33.275Z,101382.70
2018-12-15T22:08:01.971Z,101383.33
2018-12-15T22:10:31.100Z,101374.36
2018-12-15T22:12:59.894Z,101367.91
2018-12-15T22:15:28.654Z,101360.66
2018-12-15T22:17:57.382Z,101360.05
2018-12-15T22:20:26.117Z,101358.91
2018-12-15T22:22:54.800Z,101344.98
2018-12-15T22:25:23.530Z,101343.62
2018-12-15T22:27:52.211Z,101332.56
2018-12-15T22:30:20.915Z,101327.58
2018-12-15T22:32:50.318Z,101325.43
2018-12-15T22:35:19.029Z,101320.85
2018-12-15T22:37:47.839Z,101305.05
2018-12-15T22:40:17.632Z,101307.80
2018-12-15T22:42:46.345Z,101302.47
2018-12-15T22:45:15.052Z,101298.30
2018-12-15T22:47:43.802Z,101292.28
2018-12-15T22:50:12.564Z,101292.32
2018-12-15T22:52:41.362Z,101286.59
2018-12-15T22:55:10.585Z,101282.34
2018-12-15T22:57:39.374Z,101280.20
2018-12-15T23:00:10.511Z,101277.69
2018-12-15T23:02:41.135Z,101273.72
2018-12-15T23:05:10.041Z,101273.23
2018-12-15T23:07:38.765Z,101261.07
2018-12-15T23:10:08.214Z,101255.34
2018-12-15T23:12:36.983Z,101248.29
2018-12-15T23:15:06.764Z,101252.91
2018-12-15T23:17:35.479Z,101251.10
2018-12-15T23:20:05.514Z,101233.47
2018-12-15T23:22:34.238Z,101230.45
2018-12-15T23:25:03.010Z,101223.98
2018-12-15T23:27:31.678Z,101220.31
2018-12-15T23:30:00.407Z,101218.74
2018-12-15T23:32:29.076Z,101200.08
2018-12-15T23:34:57.819Z,101203.67
2018-12-15T23:37:26.530Z,101203.54
2018-12-15T23:39:55.242Z,101203.47
2018-12-15T23:42:23.986Z,101197.45
2018-12-15T23:44:52.803Z,101193.47
2018-12-15T23:47:21.476Z,101189.80
2018-12-15T23:49:50.186Z,101182.46
2018-12-15T23:52:23.287Z,101175.71
2018-12-15T23:54:49.643Z,101181.70
2018-12-15T23:57:18.414Z,101176.37
2018-12-15T23:59:47.070Z,101174.20
